Time;durP1;ratioP1;P1;durP2;ratioP2;P2;SDS_P1;SDS_P2;PMS_P1;PMS_P2;Temp;Humidity;BMP_temperature;BMP_pressure;BME280_temperature;BME280_humidity;BME280_pressure;Samples;Min_cycle;Max_cycle;Signal;HPM_P1;HPM_P2
2021/11/18 00:01:18;;;;;;;7.33;4.60;;;;;;;4.94;96.33;99438.44;1651297;83;21934;-67
2021/11/18 00:03:47;;;;;;;7.60;4.33;;;;;;;4.98;96.25;99442.63;1683310;83;20955;-67
2021/11/18 00:06:16;;;;;;;7.62;4.58;;;;;;;4.96;96.14;99435.38;1678793;83;20971;-67
2021/11/18 00:08:44;;;;;;;6.47;4.47;;;;;;;4.95;96.10;99440.12;1685650;83;21584;-67
2021/11/18 00:11:14;;;;;;;;;;;;;;;4.94;96.20;99434.11;1688594;83;21220;-67
2021/11/18 00:13:50;;;;;;;9.00;4.75;;;;;;;4.95;96.26;99442.72;1680580;83;21148;-67
2021/11/18 00:16:15;;;;;;;6.72;5.12;;;;;;;4.98;96.36;99442.63;1651070;84;21690;-67
2021/11/18 00:18:44;;;;;;;6.10;4.37;;;;;;;4.99;96.41;99450.81;1647066;85;21597;-68
2021/11/18 00:21:18;;;;;;;9.00;4.83;;;;;;;5.01;96.41;99452.88;1656047;84;20968;-68
2021/11/18 00:23:50;;;;;;;8.78;4.92;;;;;;;5.02;96.39;99449.42;1663853;85;21092;-67
2021/11/18 00:26:21;;;;;;;8.60;4.17;;;;;;;5.03;96.41;99451.11;1662778;85;22217;-67
2021/11/18 00:28:49;;;;;;;7.30;4.70;;;;;;;5.03;96.34;99460.16;1660710;83;21147;-66
2021/11/18 00:31:26;;;;;;;11.68;4.95;;;;;;;5.01;96.25;99459.80;1680810;83;21494;-67
2021/11/18 00:33:53;;;;;;;10.08;3.95;;;;;;;4.96;96.16;99457.37;1688271;83;21215;-66
2021/11/18 00:36:22;;;;;;;;;;;;;;;4.90;96.06;99465.28;1687494;83;21007;-67
2021/11/18 00:38:52;;;;;;;9.08;4.00;;;;;;;4.85;96.19;99460.25;1681779;83;20123;-67
2021/11/18 00:41:20;;;;;;;10.93;4.17;;;;;;;4.85;96.40;99462.84;1664892;83;21179;-67
2021/11/18 00:43:49;;;;;;;9.43;4.30;;;;;;;4.86;96.48;99471.44;1678188;83;20996;-67
2021/11/18 00:46:17;;;;;;;10.20;4.22;;;;;;;4.88;96.56;99467.08;1681481;83;21324;-67
2021/11/18 00:48:50;;;;;;;13.18;3.72;;;;;;;4.91;96.57;99472.17;1684131;83;21032;-67
2021/11/18 00:51:19;;;;;;;6.40;3.25;;;;;;;4.91;96.54;99478.19;1680859;83;21999;-67
2021/11/18 00:53:53;;;;;;;11.88;3.83;;;;;;;4.96;96.60;99475.48;1683553;83;21050;-67
2021/11/18 00:56:22;;;;;;;8.50;3.70;;;;;;;4.97;96.55;99475.87;1674849;84;21557;-67
2021/11/18 00:58:51;;;;;;;8.88;3.95;;;;;;;5.00;96.56;99477.08;1683816;83;21096;-67
2021/11/18 01:01:30;;;;;;;5.45;3.15;;;;;;;5.02;96.60;99475.30;1667748;83;21565;-67
2021/11/18 01:03:58;;;;;;;7.83;3.02;;;;;;;5.04;96.56;99476.11;1688494;83;20947;-67
2021/11/18 01:06:24;;;;;;;7.50;3.10;;;;;;;5.04;96.51;99473.53;1665105;84;21612;-67
2021/11/18 01:08:52;;;;;;;7.57;2.67;;;;;;;5.05;96.49;99476.50;1683236;83;21055;-67
2021/11/18 01:11:23;;;;;;;6.17;2.77;;;;;;;5.03;96.39;99487.33;1686627;83;21261;-67
2021/11/18 01:13:52;;;;;;;7.75;3.08;;;;;;;5.00;96.31;99483.55;1683307;83;22933;-67
2021/11/18 01:16:26;;;;;;;7.05;2.90;;;;;;;4.97;96.24;99483.63;1685561;83;21946;-67
2021/11/18 01:18:54;;;;;;;6.62;2.40;;;;;;;4.96;96.33;99491.00;1688997;83;21015;-67
2021/11/18 01:21:23;;;;;;;6.22;2.00;;;;;;;4.97;96.42;99488.80;1678670;83;21036;-67
2021/11/18 01:23:54;;;;;;;4.40;1.98;;;;;;;4.97;96.42;99492.69;1686468;83;21059;-68
2021/11/18 01:26:21;;;;;;;6.28;1.98;;;;;;;4.98;96.45;99500.00;1684220;83;21099;-67
2021/11/18 01:28:50;;;;;;;4.80;1.67;;;;;;;4.99;96.45;99508.19;1688456;83;21105;-67
2021/11/18 01:31:18;;;;;;;3.83;1.20;;;;;;;4.98;96.41;99507.31;1688627;83;20949;-67
2021/11/18 01:33:45;;;;;;;3.83;1.98;;;;;;;4.96;96.34;99506.53;1668832;83;21533;-67
2021/11/18 01:36:14;;;;;;;5.78;1.80;;;;;;;4.94;96.22;99505.72;1686161;83;21113;-67
2021/11/18 01:38:41;;;;;;;4.75;1.35;;;;;;;4.93;96.28;99506.62;1680590;83;21015;-67
2021/11/18 01:41:13;;;;;;;4.55;1.57;;;;;;;4.94;96.39;99505.72;1687011;83;21975;-67
2021/11/18 01:43:50;;;;;;;4.42;1.30;;;;;;;4.94;96.34;99503.13;1684112;83;21074;-66
2021/11/18 01:46:22;;;;;;;3.72;1.62;;;;;;;4.89;96.13;99497.22;1692490;83;21605;-67
2021/11/18 01:48:52;;;;;;;4.53;1.30;;;;;;;4.84;96.08;99490.03;1685397;83;21015;-67
2021/11/18 01:51:24;;;;;;;4.53;1.25;;;;;;;4.77;96.00;99491.11;1686282;83;21160;-67
2021/11/18 01:53:52;;;;;;;3.98;0.80;;;;;;;4.70;95.97;99496.87;1687511;83;21086;-67
2021/11/18 01:56:24;;;;;;;;;;;;;;;4.65;96.01;99493.55;1691519;83;21482;-67
2021/11/18 01:58:55;;;;;;;2.72;1.17;;;;;;;4.61;96.05;99507.47;1687208;83;20146;-67
2021/11/18 02:01:23;;;;;;;3.33;1.05;;;;;;;4.54;96.01;99499.03;1684342;83;21106;-67
2021/11/18 02:03:50;;;;;;;3.67;1.30;;;;;;;4.48;96.01;99501.75;1684133;83;21042;-67
2021/11/18 02:06:22;;;;;;;5.90;1.12;;;;;;;4.40;95.87;99503.72;1686014;83;22004;-66
2021/11/18 02:08:49;;;;;;;2.00;0.72;;;;;;;4.38;96.12;99508.06;1687799;83;21654;-67
2021/11/18 02:11:24;;;;;;;4.53;1.42;;;;;;;4.38;96.32;99511.95;1683951;83;21538;-67
2021/11/18 02:13:54;;;;;;;4.00;1.00;;;;;;;4.38;96.44;99520.55;1687598;83;21003;-67
2021/11/18 02:16:21;;;;;;;3.58;1.05;;;;;;;4.40;96.42;99512.77;1653432;85;21108;-67
2021/11/18 02:18:48;;;;;;;;;;;;;;;4.43;96.54;99530.33;1683019;83;21087;-67
2021/11/18 02:21:17;;;;;;;4.40;1.35;;;;;;;4.47;96.56;99523.34;1646916;85;20239;-68
2021/11/18 02:23:49;;;;;;;1.67;0.72;;;;;;;4.47;96.48;99505.23;1663932;83;21345;-67
2021/11/18 02:26:18;;;;;;;4.20;1.05;;;;;;;4.48;96.45;99510.80;1659736;84;21508;-67
2021/11/18 02:28:48;;;;;;;3.17;0.80;;;;;;;4.48;96.31;99512.09;1688406;83;21145;-68
2021/11/18 02:31:26;;;;;;;3.33;0.90;;;;;;;4.48;96.24;99512.09;1682438;83;21116;-67
2021/11/18 02:33:57;;;;;;;3.62;1.15;;;;;;;4.48;96.17;99506.92;1681971;83;21054;-67
2021/11/18 02:36:25;;;;;;;2.33;0.70;;;;;;;4.45;96.07;99508.30;1682396;83;21011;-67
2021/11/18 02:38:54;;;;;;;1.77;0.50;;;;;;;4.45;96.08;99501.84;1684948;83;21584;-67
2021/11/18 02:41:29;;;;;;;3.45;0.70;;;;;;;4.42;96.08;99508.38;1681580;83;21065;-68
2021/11/18 02:44:01;;;;;;;3.10;0.55;;;;;;;4.42;96.11;99509.67;1675356;83;20952;-67
2021/11/18 02:46:27;;;;;;;1.85;0.60;;;;;;;4.40;96.09;99506.30;1684121;83;20948;-67
2021/11/18 02:48:54;;;;;;;1.92;0.53;;;;;;;4.37;95.97;99512.40;1682022;83;20940;-67
2021/11/18 02:51:22;;;;;;;4.20;0.62;;;;;;;4.32;95.89;99508.23;1657245;83;21649;-67
2021/11/18 02:53:50;;;;;;;2.83;0.50;;;;;;;4.31;96.10;99519.44;1682007;83;21744;-67
2021/11/18 02:56:18;;;;;;;3.60;0.93;;;;;;;4.34;96.29;99542.62;1690729;83;22130;-67
2021/11/18 02:58:47;;;;;;;2.60;1.02;;;;;;;4.38;96.32;99544.26;1685093;83;20995;-67
2021/11/18 03:01:29;;;;;;;3.52;1.30;;;;;;;4.41;96.35;99541.59;1686267;83;20964;-67
2021/11/18 03:03:57;;;;;;;5.28;1.77;;;;;;;4.43;96.35;99532.08;1647448;84;21052;-68
2021/11/18 03:06:24;;;;;;;3.05;1.00;;;;;;;4.41;96.21;99537.72;1648071;85;21108;-67
2021/11/18 03:08:52;;;;;;;3.98;1.17;;;;;;;4.39;96.09;99539.48;1647899;85;21074;-67
2021/11/18 03:11:22;;;;;;;2.05;0.62;;;;;;;4.37;96.05;99539.95;1657340;85;20937;-67
2021/11/18 03:13:50;;;;;;;5.78;1.07;;;;;;;4.34;95.96;99550.38;1668529;83;21103;-68
2021/11/18 03:16:17;;;;;;;;;;;;;;;4.30;95.87;99542.30;1655354;84;21550;-67
2021/11/18 03:18:44;;;;;;;3.12;0.98;;;;;;;4.26;95.87;99546.26;1663900;85;20294;-67
2021/11/18 03:21:16;;;;;;;3.55;0.62;;;;;;;4.22;95.88;99549.78;1643876;85;21058;-67
2021/11/18 03:23:43;;;;;;;2.35;1.10;;;;;;;4.17;95.80;99550.78;1667368;85;21008;-67
2021/11/18 03:26:15;;;;;;;3.85;0.93;;;;;;;4.10;95.75;99548.80;1658568;85;21015;-67
2021/11/18 03:28:42;;;;;;;4.25;1.10;;;;;;;4.06;95.83;99551.03;1659526;85;21063;-67
2021/11/18 03:31:14;;;;;;;5.33;1.20;;;;;;;4.02;96.03;99549.42;1660965;85;21060;-67
2021/11/18 03:33:52;;;;;;;4.67;0.88;;;;;;;4.03;96.17;99561.44;1687419;83;21163;-67
2021/11/18 03:36:21;;;;;;;3.45;1.35;;;;;;;4.06;96.38;99571.70;1687887;83;21059;-67
2021/11/18 03:38:48;;;;;;;5.15;1.10;;;;;;;4.10;96.48;99566.89;1687385;83;20952;-67
2021/11/18 03:41:15;;;;;;;6.47;0.90;;;;;;;4.16;96.52;99588.70;1685056;83;21002;-67
2021/11/18 03:43:55;;;;;;;7.42;0.80;;;;;;;4.17;96.42;99582.67;1687479;83;20998;-67
2021/11/18 03:46:27;;;;;;;3.08;0.68;;;;;;;4.13;96.19;99568.11;1684594;83;22255;-67
2021/11/18 03:48:55;;;;;;;3.27;0.70;;;;;;;4.07;95.81;99545.00;1685517;83;21063;-67
2021/11/18 03:51:22;;;;;;;3.70;0.70;;;;;;;4.08;95.94;99549.27;1688612;83;20987;-66
2021/11/18 03:53:49;;;;;;;4.67;0.95;;;;;;;4.08;95.86;99549.27;1687135;83;21499;-67
2021/11/18 03:56:20;;;;;;;6.70;0.70;;;;;;;4.06;95.72;99560.08;1691412;83;21004;-67
2021/11/18 03:58:48;;;;;;;2.67;0.80;;;;;;;4.01;95.60;99551.61;1687023;83;21248;-67
2021/11/18 04:01:16;;;;;;;4.72;1.35;;;;;;;3.93;95.55;99552.23;1690355;83;21794;-67
2021/11/18 04:03:45;;;;;;;2.83;1.12;;;;;;;3.86;95.53;99550.65;1690760;83;21534;-67
2021/11/18 04:06:13;;;;;;;2.42;0.60;;;;;;;3.78;95.54;99551.69;1687665;83;21119;-67
2021/11/18 04:08:40;;;;;;;5.70;1.07;;;;;;;3.71;95.53;99547.53;1688676;83;21593;-67
2021/11/18 04:11:10;;;;;;;6.90;1.25;;;;;;;3.65;95.57;99552.84;1669454;84;21543;-67
2021/11/18 04:13:37;;;;;;;3.95;1.40;;;;;;;3.58;95.62;99542.22;1687959;83;21094;-67
2021/11/18 04:16:25;;;;;;;5.23;1.73;;;;;;;3.49;95.58;99542.42;1686997;83;21174;-67
2021/11/18 04:18:55;;;;;;;3.75;1.30;;;;;;;3.46;95.76;99534.30;1719064;81;21004;-67
2021/11/18 04:21:21;;;;;;;4.80;1.40;;;;;;;3.42;95.92;99539.55;1710864;81;21700;-67
2021/11/18 04:23:48;;;;;;;4.75;1.40;;;;;;;3.39;95.93;99539.62;1722030;81;21257;-67
2021/11/18 04:26:15;;;;;;;6.60;1.72;;;;;;;3.36;95.94;99542.70;1689429;82;21195;-67
2021/11/18 04:28:42;;;;;;;4.45;1.40;;;;;;;3.36;95.97;99550.44;1714894;82;21032;-67
2021/11/18 04:31:20;;;;;;;4.83;1.07;;;;;;;3.35;95.96;99562.91;1706012;82;21084;-67
2021/11/18 04:33:47;;;;;;;7.55;0.93;;;;;;;3.32;95.94;99577.17;1711549;81;21230;-67
2021/11/18 04:36:19;;;;;;;3.65;1.25;;;;;;;3.32;96.04;99572.01;1689045;83;21704;-67
2021/11/18 04:38:47;;;;;;;2.77;0.85;;;;;;;3.35;96.18;99566.78;1666673;83;21628;-67
2021/11/18 04:41:15;;;;;;;4.40;0.98;;;;;;;3.40;96.27;99574.89;1686336;83;20910;-67
2021/11/18 04:43:43;;;;;;;4.30;1.05;;;;;;;3.45;96.30;99581.66;1718994;81;20996;-67
2021/11/18 04:46:12;;;;;;;4.35;1.20;;;;;;;3.47;96.17;99585.03;1716840;81;21063;-67
2021/11/18 04:48:40;;;;;;;6.42;1.10;;;;;;;3.49;96.08;99587.59;1719944;82;21142;-68
2021/11/18 04:51:11;;;;;;;6.35;1.00;;;;;;;3.48;95.98;99585.91;1690901;81;21574;-67
2021/11/18 04:53:38;;;;;;;4.83;1.02;;;;;;;3.48;95.91;99579.45;1714588;82;20957;-67
2021/11/18 04:56:06;;;;;;;;;;;;;;;3.48;95.92;99583.33;1723977;81;21022;-67
2021/11/18 04:58:32;;;;;;;;;;;;;;;3.46;95.95;99576.05;1719531;82;20271;-67
2021/11/18 05:00:59;;;;;;;7.00;1.20;;;;;;;3.44;96.01;99579.94;1720518;82;20917;-67
2021/11/18 05:03:28;;;;;;;1.82;0.82;;;;;;;3.44;96.07;99581.67;1721844;82;21110;-67
2021/11/18 05:05:57;;;;;;;4.33;1.17;;;;;;;3.44;95.99;99575.22;1721437;82;21606;-68
2021/11/18 05:08:25;;;;;;;5.75;1.27;;;;;;;3.42;95.98;99567.94;1721606;82;21035;-67
2021/11/18 05:10:53;;;;;;;3.77;1.20;;;;;;;3.41;96.05;99564.52;1722309;81;21547;-67
2021/11/18 05:13:24;;;;;;;6.17;1.25;;;;;;;3.42;96.13;99565.36;1714571;82;21488;-67
2021/11/18 05:15:52;;;;;;;4.85;1.50;;;;;;;3.45;96.24;99565.33;1713812;82;21657;-67
2021/11/18 05:18:20;;;;;;;4.50;1.10;;;;;;;3.49;96.31;99566.95;1697388;81;21035;-67
2021/11/18 05:20:48;;;;;;;4.22;1.27;;;;;;;3.51;96.21;99563.91;1650839;85;21045;-67
2021/11/18 05:23:16;;;;;;;4.22;1.15;;;;;;;3.51;96.12;99571.20;1687044;83;24966;-67
2021/11/18 05:25:45;;;;;;;3.08;1.17;;;;;;;3.52;96.15;99569.46;1683838;83;21467;-67
2021/11/18 05:28:13;;;;;;;4.20;1.25;;;;;;;3.55;96.23;99575.84;1681360;83;20968;-67
2021/11/18 05:30:40;;;;;;;7.40;1.55;;;;;;;3.59;96.29;99578.79;1662744;83;20987;-67
2021/11/18 05:33:11;;;;;;;4.20;1.32;;;;;;;3.62;96.27;99591.63;1659313;83;21112;-67
2021/11/18 05:35:41;;;;;;;4.20;1.17;;;;;;;3.63;96.15;99586.86;1677948;83;20977;-67
2021/11/18 05:38:15;;;;;;;8.03;1.40;;;;;;;3.62;95.98;99573.56;1703240;82;22548;-67
2021/11/18 05:40:45;;;;;;;4.15;1.10;;;;;;;3.58;95.86;99584.81;1676560;83;21214;-67
2021/11/18 05:43:14;;;;;;;3.90;0.90;;;;;;;3.54;95.91;99588.36;1681747;83;21930;-67
2021/11/18 05:45:41;;;;;;;9.25;1.47;;;;;;;3.52;96.08;99595.27;1684355;83;21665;-67
2021/11/18 05:48:10;;;;;;;3.87;1.10;;;;;;;3.54;96.29;99590.94;1687763;83;21608;-67
2021/11/18 05:50:44;;;;;;;5.85;1.30;;;;;;;3.57;96.39;99592.16;1681641;83;21247;-67
2021/11/18 05:53:09;;;;;;;5.97;1.65;;;;;;;3.60;96.40;99572.73;1680678;83;21102;-67
2021/11/18 05:55:37;;;;;;;5.80;1.47;;;;;;;3.63;96.48;99592.03;1686636;83;20992;-66
2021/11/18 05:58:06;;;;;;;4.10;1.40;;;;;;;3.69;96.56;99594.48;1682978;82;21515;-66
2021/11/18 06:00:36;;;;;;;5.90;1.35;;;;;;;3.75;96.57;99580.17;1688899;83;21538;-67
2021/11/18 06:03:04;;;;;;;4.55;1.72;;;;;;;3.80;96.54;99580.89;1685030;83;22659;-67
2021/11/18 06:05:32;;;;;;;5.53;1.92;;;;;;;3.84;96.44;99574.36;1664674;83;21595;-66
2021/11/18 06:07:59;;;;;;;;;;;;;;;3.84;96.33;99582.11;1690178;83;20917;-66
2021/11/18 06:10:29;;;;;;;4.17;1.32;;;;;;;3.85;96.33;99572.21;1660852;83;20170;-67
2021/11/18 06:12:57;;;;;;;3.80;1.30;;;;;;;3.81;96.27;99569.70;1683734;83;21060;-67
2021/11/18 06:15:24;;;;;;;8.28;1.80;;;;;;;3.84;96.43;99591.16;1683740;83;21040;-66
2021/11/18 06:17:51;;;;;;;4.80;1.42;;;;;;;3.89;96.57;99597.08;1661570;83;21122;-67
2021/11/18 06:20:20;;;;;;;7.53;1.95;;;;;;;3.93;96.62;99598.72;1687197;83;21081;-69
2021/11/18 06:22:49;;;;;;;6.55;1.40;;;;;;;3.96;96.62;99585.73;1680861;83;21111;-67
2021/11/18 06:25:21;;;;;;;2.92;1.25;;;;;;;4.03;96.72;99587.28;1660367;83;21019;-67
2021/11/18 06:27:48;;;;;;;10.05;2.42;;;;;;;4.06;96.70;99587.20;1684852;83;21196;-66
2021/11/18 06:30:20;;;;;;;6.42;1.57;;;;;;;4.11;96.78;99607.33;1626368;85;21143;-67
2021/11/18 06:32:48;;;;;;;5.87;1.50;;;;;;;4.16;96.79;99611.96;1682098;83;20980;-68
2021/11/18 06:35:19;;;;;;;3.92;1.37;;;;;;;4.20;96.76;99616.19;1658202;83;21958;-67
2021/11/18 06:37:47;;;;;;;3.58;1.47;;;;;;;4.23;96.71;99608.36;1685529;83;21298;-68
2021/11/18 06:40:14;;;;;;;;;;;;;;;4.25;96.67;99610.45;1686242;83;21912;-68
2021/11/18 06:42:41;;;;;;;;;;;;;;;4.25;96.53;99609.16;1684022;83;20139;-68
2021/11/18 06:45:12;;;;;;;5.72;1.55;;;;;;;4.23;96.43;99619.99;1683708;83;20106;-68
2021/11/18 06:47:38;;;;;;;15.30;2.55;;;;;;;4.20;96.54;99618.77;1654965;83;21102;-68
2021/11/18 06:50:07;;;;;;;4.97;1.40;;;;;;;4.21;96.64;99630.80;1687084;82;21585;-69
2021/11/18 06:52:33;;;;;;;3.85;1.60;;;;;;;4.24;96.71;99626.85;1684108;83;21082;-69
2021/11/18 06:55:01;;;;;;;5.13;1.40;;;;;;;4.31;96.90;99633.16;1684446;83;21063;-69
2021/11/18 06:57:28;;;;;;;4.12;1.90;;;;;;;4.38;96.92;99637.32;1684948;82;22337;-69
2021/11/18 06:59:57;;;;;;;3.00;1.40;;;;;;;4.46;97.01;99637.99;1684178;83;21016;-69
2021/11/18 07:02:23;;;;;;;4.53;1.52;;;;;;;4.54;97.00;99638.66;1657351;83;21620;-69
2021/11/18 07:04:50;;;;;;;7.93;1.67;;;;;;;4.56;96.86;99642.04;1684484;83;22679;-69
2021/11/18 07:07:17;;;;;;;9.30;3.20;;;;;;;4.58;96.78;99640.27;1685633;83;21047;-69
2021/11/18 07:09:43;;;;;;;8.73;1.77;;;;;;;4.57;96.78;99620.48;1683348;83;21182;-69
2021/11/18 07:12:15;;;;;;;11.65;2.20;;;;;;;4.57;96.74;99622.23;1682261;83;21051;-69
2021/11/18 07:14:43;;;;;;;6.47;2.37;;;;;;;4.56;96.78;99636.02;1682784;83;21043;-68
2021/11/18 07:17:10;;;;;;;5.33;1.52;;;;;;;4.61;96.95;99629.86;1681062;83;21020;-69
2021/11/18 07:19:37;;;;;;;8.13;2.20;;;;;;;4.70;97.09;99644.30;1698006;83;22469;-68
2021/11/18 07:22:06;;;;;;;8.23;2.25;;;;;;;4.78;97.08;99641.52;1673644;83;21079;-69
2021/11/18 07:24:32;;;;;;;7.25;2.05;;;;;;;4.81;96.94;99633.69;1699591;82;21059;-68
2021/11/18 07:27:00;;;;;;;7.33;2.10;;;;;;;4.81;96.85;99633.69;1696360;82;21584;-68
2021/11/18 07:29:26;;;;;;;10.85;3.50;;;;;;;4.82;96.95;99633.66;1701195;81;21083;-68
2021/11/18 07:31:54;;;;;;;10.58;2.92;;;;;;;4.86;97.12;99633.13;1698376;82;21108;-68
2021/11/18 07:34:21;;;;;;;10.05;2.40;;;;;;;4.89;97.05;99622.25;1703779;82;20981;-68
2021/11/18 07:36:50;;;;;;;6.47;2.30;;;;;;;4.94;97.07;99629.91;1674396;83;21064;-68
2021/11/18 07:39:25;;;;;;;7.35;2.27;;;;;;;5.01;97.10;99619.78;1698885;82;22378;-69
2021/11/18 07:41:54;;;;;;;6.97;1.87;;;;;;;5.08;97.22;99622.63;1693122;83;21062;-69
2021/11/18 07:44:23;;;;;;;7.33;1.98;;;;;;;5.26;97.44;99629.05;1702903;82;21096;-68
2021/11/18 07:46:54;;;;;;;5.90;2.40;;;;;;;5.45;97.40;99626.80;1702466;81;21092;-67
2021/11/18 07:49:20;;;;;;;6.78;1.70;;;;;;;5.58;97.20;99617.81;1678923;82;21028;-69
2021/11/18 07:51:47;;;;;;;6.30;1.53;;;;;;;5.63;96.86;99613.80;1698163;83;22269;-68
2021/11/18 07:54:24;;;;;;;6.67;2.17;;;;;;;5.59;96.49;99616.91;1676036;82;21800;-67
2021/11/18 07:56:53;;;;;;;9.58;2.83;;;;;;;5.51;96.38;99614.97;1695347;82;21473;-67
2021/11/18 07:59:22;;;;;;;6.15;1.60;;;;;;;5.46;96.46;99615.58;1695480;82;21029;-67
2021/11/18 08:01:59;;;;;;;8.53;2.10;;;;;;;5.51;96.77;99621.45;1701148;82;21496;-67
2021/11/18 08:04:26;;;;;;;10.30;2.00;;;;;;;5.59;96.88;99626.42;1676881;83;21079;-67
2021/11/18 08:06:56;;;;;;;6.92;1.77;;;;;;;5.59;96.74;99616.91;1674398;84;21082;-67
2021/11/18 08:09:25;;;;;;;8.85;2.10;;;;;;;5.56;96.57;99616.99;1675998;83;22315;-68
2021/11/18 08:12:04;;;;;;;6.55;2.50;;;;;;;5.53;96.57;99622.27;1705644;82;21531;-67
2021/11/18 08:14:31;;;;;;;5.47;2.40;;;;;;;5.56;96.79;99624.77;1673683;82;21033;-68
2021/11/18 08:17:06;;;;;;;5.30;1.70;;;;;;;5.57;96.66;99616.12;1694759;82;21084;-68
2021/11/18 08:19:33;;;;;;;5.40;1.70;;;;;;;5.51;96.42;99620.16;1710435;81;21182;-68
2021/11/18 08:22:08;;;;;;;10.88;2.00;;;;;;;5.49;96.57;99622.38;1687499;82;28419;-68
2021/11/18 08:24:37;;;;;;;7.12;2.08;;;;;;;5.53;96.78;99620.97;1670918;83;22290;-69
2021/11/18 08:27:05;;;;;;;5.15;1.92;;;;;;;5.56;96.82;99615.70;1675010;83;21120;-69
2021/11/18 08:29:33;;;;;;;5.42;2.47;;;;;;;5.59;96.75;99629.86;1674063;83;21606;-69
2021/11/18 08:32:01;;;;;;;6.70;1.95;;;;;;;5.63;96.81;99621.99;1648089;83;21096;-69
2021/11/18 08:34:28;;;;;;;7.40;2.02;;;;;;;5.66;96.73;99623.20;1675268;84;21086;-69
2021/11/18 08:36:56;;;;;;;6.60;2.17;;;;;;;5.69;96.75;99625.27;1671444;84;22007;-69
2021/11/18 08:39:26;;;;;;;4.25;1.75;;;;;;;5.77;96.96;99625.03;1716654;82;21047;-69
2021/11/18 08:42:01;;;;;;;6.03;1.70;;;;;;;5.89;96.95;99629.88;1680748;84;21075;-68
2021/11/18 08:44:30;;;;;;;4.85;1.72;;;;;;;5.96;96.82;99639.17;1648833;84;22600;-69
2021/11/18 08:46:58;;;;;;;5.97;1.80;;;;;;;5.97;96.58;99640.89;1643405;84;21140;-69
2021/11/18 08:49:28;;;;;;;7.05;3.08;;;;;;;5.92;96.37;99642.73;1688426;84;21054;-68
2021/11/18 08:51:57;;;;;;;3.85;1.80;;;;;;;5.87;96.39;99646.36;1676959;82;21072;-69
2021/11/18 08:54:35;;;;;;;4.78;2.10;;;;;;;5.86;96.57;99637.73;1705990;82;21152;-69
2021/11/18 08:57:03;;;;;;;6.28;1.62;;;;;;;5.85;96.50;99633.43;1712396;81;21083;-69
2021/11/18 08:59:39;;;;;;;9.13;2.17;;;;;;;5.86;96.53;99649.40;1685067;83;22171;-68
2021/11/18 09:02:11;;;;;;;3.52;1.62;;;;;;;5.86;96.58;99651.99;1710190;81;20980;-69
2021/11/18 09:04:38;;;;;;;2.58;1.37;;;;;;;5.90;96.66;99652.29;1672700;84;21024;-69
2021/11/18 09:07:05;;;;;;;2.50;1.10;;;;;;;5.87;96.38;99649.79;1676561;82;21633;-69
2021/11/18 09:09:32;;;;;;;2.75;1.15;;;;;;;5.79;96.25;99653.05;1673763;82;22504;-69
2021/11/18 09:12:01;;;;;;;3.35;1.15;;;;;;;5.72;96.27;99654.13;1708635;81;21120;-69
2021/11/18 09:14:51;;;;;;;5.62;1.25;;;;;;;5.74;96.43;99648.44;1715825;81;21713;-68
2021/11/18 09:23:22;;;;;;;;;;;;;;;;;;;;;
2021/11/18 09:25:49;;;;;;;5.35;1.47;;;;;;;6.13;96.49;99632.64;1557952;89;21174;-70
2021/11/18 09:28:18;;;;;;;3.08;1.07;;;;;;;6.12;96.27;99650.40;1579395;89;21642;-68
2021/11/18 09:30:53;;;;;;;4.47;1.65;;;;;;;6.07;96.11;99644.50;1580867;88;21785;-68
2021/11/18 09:33:21;;;;;;;4.22;1.55;;;;;;;5.97;96.10;99642.19;1582707;88;21246;-68
2021/11/18 09:35:55;;;;;;;6.05;1.50;;;;;;;5.98;96.25;99643.03;1581477;88;21128;-69
2021/11/18 09:38:33;;;;;;;4.65;1.40;;;;;;;6.03;96.59;99652.38;1583648;89;21101;-68
2021/11/18 09:41:27;;;;;;;3.05;1.25;;;;;;;6.14;96.72;99645.58;1562921;89;21165;-69
2021/11/18 09:44:28;;;;;;;3.35;1.77;;;;;;;6.15;96.42;99652.89;1581250;89;21109;-67
2021/11/18 09:47:33;;;;;;;3.92;1.60;;;;;;;6.09;96.26;99656.97;1584377;89;21182;-68
2021/11/18 09:50:59;;;;;;;6.72;1.80;;;;;;;6.00;96.25;99644.69;1574453;89;21173;-68
2021/11/18 09:54:22;;;;;;;4.15;1.90;;;;;;;5.98;96.44;99660.72;1579464;89;21165;-68
2021/11/18 09:57:15;;;;;;;6.33;2.27;;;;;;;6.10;96.84;99661.25;1578947;89;21161;-68
2021/11/18 10:00:27;;;;;;;6.00;1.80;;;;;;;6.23;96.86;99649.63;1582861;89;21628;-68
2021/11/18 10:03:19;;;;;;;4.83;1.55;;;;;;;6.32;96.72;99638.96;1580062;89;21732;-66
2021/11/18 10:06:05;;;;;;;3.37;2.12;;;;;;;6.36;96.54;99641.00;1579268;89;21046;-67
2021/11/18 10:08:47;;;;;;;3.65;1.32;;;;;;;6.44;96.54;99652.86;1583248;89;21002;-67
2021/11/18 10:11:37;;;;;;;5.78;1.67;;;;;;;6.46;96.33;99664.47;1583699;89;21161;-67
2021/11/18 10:14:41;;;;;;;4.28;1.60;;;;;;;6.40;96.11;99657.72;1590605;89;21198;-67
2021/11/18 10:17:31;;;;;;;3.37;1.27;;;;;;;6.45;96.38;99653.25;1627874;85;21111;-67
2021/11/18 10:20:16;;;;;;;3.12;1.00;;;;;;;6.47;96.16;99641.09;1709652;81;21610;-67
2021/11/18 10:22:55;;;;;;;4.20;1.17;;;;;;;6.36;95.83;99647.48;1713582;80;20984;-67
2021/11/18 10:29:00;;;;;;;;;;;;;;;;;;;;;
2021/11/18 10:32:01;;;;;;;2.55;1.00;;;;;;;6.30;96.05;99649.81;1687489;82;21072;-68
2021/11/18 10:34:51;;;;;;;2.98;0.80;;;;;;;6.32;96.06;99636.37;1628998;84;21272;-68
2021/11/18 10:37:44;;;;;;;1.00;0.53;;;;;;;6.35;96.11;99636.27;1650295;82;21547;-69
2021/11/18 10:40:31;;;;;;;2.22;0.93;;;;;;;6.43;96.22;99652.44;1677940;83;21068;-69
2021/11/18 10:43:17;;;;;;;2.77;0.80;;;;;;;6.45;95.95;99648.06;1677866;84;21254;-69
2021/11/18 10:45:51;;;;;;;3.27;1.00;;;;;;;6.42;95.89;99649.91;1675625;83;21155;-68
2021/11/18 10:48:36;;;;;;;3.27;1.10;;;;;;;6.31;95.62;99647.65;1673628;83;21371;-70
2021/11/18 10:51:15;;;;;;;5.33;1.57;;;;;;;6.24;95.79;99633.16;1674899;82;21053;-68
2021/11/18 10:54:08;;;;;;;4.17;1.50;;;;;;;6.24;95.99;99642.23;1657874;84;20977;-70
2021/11/18 10:56:47;;;;;;;5.87;1.77;;;;;;;6.21;95.96;99635.85;1659882;84;20966;-70
2021/11/18 10:59:36;;;;;;;6.08;1.70;;;;;;;6.22;96.16;99640.16;1667793;84;20999;-69
2021/11/18 11:02:24;;;;;;;3.52;1.45;;;;;;;6.27;96.34;99643.44;1686960;82;22357;-69
2021/11/18 11:04:59;;;;;;;5.35;1.67;;;;;;;6.35;96.39;99646.64;1605246;86;21624;-70
2021/11/18 11:07:45;;;;;;;8.93;2.60;;;;;;;6.38;96.31;99638.77;1665381;84;21151;-69
2021/11/18 11:10:23;;;;;;;7.35;1.90;;;;;;;6.38;96.14;99645.70;1646959;85;21019;-69
2021/11/18 11:16:53;;;;;;;5.08;1.82;;;;;;;6.39;96.30;99614.55;1600912;88;21267;-70
2021/11/18 11:20:05;;;;;;;6.20;1.80;;;;;;;6.44;96.45;99619.14;1573315;89;21774;-70
2021/11/18 11:23:11;;;;;;;4.75;2.30;;;;;;;6.73;97.09;99621.23;1591717;87;21162;-70
2021/11/18 11:25:57;;;;;;;5.42;2.02;;;;;;;6.90;96.63;99609.83;1623416;87;21141;-68
2021/11/18 11:29:03;;;;;;;6.00;1.95;;;;;;;6.85;95.95;99608.29;1613009;86;21168;-69
2021/11/18 11:32:24;;;;;;;8.85;2.77;;;;;;;6.70;95.76;99614.39;1612138;87;21224;-69
2021/11/18 11:35:29;;;;;;;8.60;2.20;;;;;;;6.61;95.98;99612.11;1616045;87;21021;-70
2021/11/18 11:38:36;;;;;;;8.30;2.22;;;;;;;6.60;96.22;99599.17;1614654;86;21128;-70
2021/11/18 11:41:30;;;;;;;;;;;;;;;6.58;96.27;99593.18;1632088;84;21087;-70
2021/11/18 11:44:50;;;;;;;11.60;2.52;;;;;;;6.57;96.29;99594.09;1615287;87;20681;-69
2021/11/18 11:47:40;;;;;;;7.25;2.20;;;;;;;6.55;96.44;99589.39;1614102;85;21887;-69
2021/11/18 11:50:40;;;;;;;9.48;3.00;;;;;;;6.56;96.42;99589.81;1629546;86;21678;-70
2021/11/18 11:53:22;;;;;;;10.10;2.30;;;;;;;6.61;96.62;99584.00;1634528;83;21817;-70
2021/11/18 11:56:16;;;;;;;8.48;2.20;;;;;;;6.66;96.56;99602.86;1680905;83;21115;-70
2021/11/18 11:59:05;;;;;;;8.25;3.20;;;;;;;6.75;96.74;99609.06;1677418;82;21553;-69
2021/11/18 12:02:10;;;;;;;13.80;3.10;;;;;;;6.88;96.80;99610.32;1676782;82;21134;-70
2021/11/18 12:05:14;;;;;;;8.50;2.50;;;;;;;7.01;96.70;99616.41;1679391;83;21117;-70
2021/11/18 12:07:59;;;;;;;6.30;2.02;;;;;;;7.05;96.36;99619.28;1680993;83;21228;-70
2021/11/18 12:10:34;;;;;;;6.85;2.15;;;;;;;7.04;96.25;99630.58;1688410;82;21018;-69
2021/11/18 12:14:02;;;;;;;9.20;1.95;;;;;;;7.00;96.18;99622.48;1679595;82;21107;-69
2021/11/18 12:16:46;;;;;;;8.65;2.10;;;;;;;7.01;96.24;99625.50;1668909;83;22310;-69
2021/11/18 12:19:36;;;;;;;8.50;2.65;;;;;;;7.02;96.31;99640.16;1671065;83;21120;-71
2021/11/18 12:22:41;;;;;;;9.95;2.30;;;;;;;7.05;96.46;99627.08;1650761;85;21118;-70
2021/11/18 12:25:31;;;;;;;11.05;2.52;;;;;;;7.09;96.53;99619.14;1652262;81;21159;-69
2021/11/18 12:28:28;;;;;;;8.28;2.50;;;;;;;7.20;96.64;99616.17;1735487;80;21650;-70
2021/11/18 12:31:07;;;;;;;9.50;2.77;;;;;;;7.29;96.58;99618.44;1735548;80;21854;-69
2021/11/18 12:33:57;;;;;;;7.80;2.00;;;;;;;7.29;96.30;99619.73;1736252;80;21636;-69